sensor_id;sensor_type;location;lat;lon;timestamp;temperature;humidity
13673;DHT22;6909;52.202;9.876;2023-06-26T00:01:36;18.70;1.00
13673;DHT22;6909;52.202;9.876;2023-06-26T00:04:05;18.60;1.00
13673;DHT22;6909;52.202;9.876;2023-06-26T00:06:32;18.60;1.00
13673;DHT22;6909;52.202;9.876;2023-06-26T00:09:00;18.50;1.00
13673;DHT22;6909;52.202;9.876;2023-06-26T00:11:28;18.40;1.00
13673;DHT22;6909;52.202;9.876;2023-06-26T00:13:58;18.40;1.00
13673;DHT22;6909;52.202;9.876;2023-06-26T00:16:25;18.40;1.00
13673;DHT22;6909;52.202;9.876;2023-06-26T00:18:52;18.40;1.00
13673;DHT22;6909;52.202;9.876;2023-06-26T00:21:19;18.40;1.00
13673;DHT22;6909;52.202;9.876;2023-06-26T00:23:46;18.40;1.00
13673;DHT22;6909;52.202;9.876;2023-06-26T00:26:12;18.30;1.00
13673;DHT22;6909;52.202;9.876;2023-06-26T00:28:40;18.30;1.00
13673;DHT22;6909;52.202;9.876;2023-06-26T00:31:07;18.20;1.00
13673;DHT22;6909;52.202;9.876;2023-06-26T00:33:34;18.10;1.00
13673;DHT22;6909;52.202;9.876;2023-06-26T00:36:00;18.00;1.00
13673;DHT22;6909;52.202;9.876;2023-06-26T00:38:27;17.90;1.00
13673;DHT22;6909;52.202;9.876;2023-06-26T00:40:54;17.80;1.00
13673;DHT22;6909;52.202;9.876;2023-06-26T00:43:21;17.80;1.00
13673;DHT22;6909;52.202;9.876;2023-06-26T00:45:49;17.80;1.00
13673;DHT22;6909;52.202;9.876;2023-06-26T00:48:16;17.80;1.00
13673;DHT22;6909;52.202;9.876;2023-06-26T00:50:43;17.70;1.00
13673;DHT22;6909;52.202;9.876;2023-06-26T00:53:11;17.70;1.00
13673;DHT22;6909;52.202;9.876;2023-06-26T00:55:38;17.60;1.00
13673;DHT22;6909;52.202;9.876;2023-06-26T00:58:04;17.60;1.00
13673;DHT22;6909;52.202;9.876;2023-06-26T01:00:31;17.50;1.00
13673;DHT22;6909;52.202;9.876;2023-06-26T01:02:59;17.50;1.00
13673;DHT22;6909;52.202;9.876;2023-06-26T01:05:26;17.50;1.00
13673;DHT22;6909;52.202;9.876;2023-06-26T01:07:54;17.50;1.00
13673;DHT22;6909;52.202;9.876;2023-06-26T01:10:21;17.60;1.00
13673;DHT22;6909;52.202;9.876;2023-06-26T01:12:48;17.90;1.00
13673;DHT22;6909;52.202;9.876;2023-06-26T01:15:15;18.00;99.90
13673;DHT22;6909;52.202;9.876;2023-06-26T01:17:42;18.00;99.90
13673;DHT22;6909;52.202;9.876;2023-06-26T01:20:12;18.00;99.90
13673;DHT22;6909;52.202;9.876;2023-06-26T01:22:45;18.00;1.00
13673;DHT22;6909;52.202;9.876;2023-06-26T01:25:20;18.00;1.00
13673;DHT22;6909;52.202;9.876;2023-06-26T01:27:50;18.00;1.00
13673;DHT22;6909;52.202;9.876;2023-06-26T01:30:20;18.00;1.00
13673;DHT22;6909;52.202;9.876;2023-06-26T01:32:48;18.00;1.00
13673;DHT22;6909;52.202;9.876;2023-06-26T01:35:15;18.00;99.90
13673;DHT22;6909;52.202;9.876;2023-06-26T01:37:42;18.10;99.90
13673;DHT22;6909;52.202;9.876;2023-06-26T01:40:09;18.10;1.00
13673;DHT22;6909;52.202;9.876;2023-06-26T01:42:36;18.20;1.00
13673;DHT22;6909;52.202;9.876;2023-06-26T01:45:09;18.40;1.00
13673;DHT22;6909;52.202;9.876;2023-06-26T01:47:44;18.50;1.00
13673;DHT22;6909;52.202;9.876;2023-06-26T01:50:14;18.40;1.00
13673;DHT22;6909;52.202;9.876;2023-06-26T01:52:46;18.50;1.00
13673;DHT22;6909;52.202;9.876;2023-06-26T01:55:21;18.40;99.90
13673;DHT22;6909;52.202;9.876;2023-06-26T01:57:52;18.50;1.00
13673;DHT22;6909;52.202;9.876;2023-06-26T02:00:21;18.30;1.00
13673;DHT22;6909;52.202;9.876;2023-06-26T02:02:49;18.30;99.90
13673;DHT22;6909;52.202;9.876;2023-06-26T02:05:16;18.20;1.00
13673;DHT22;6909;52.202;9.876;2023-06-26T02:07:42;18.20;1.00
13673;DHT22;6909;52.202;9.876;2023-06-26T02:10:10;18.10;99.90
13673;DHT22;6909;52.202;9.876;2023-06-26T02:12:37;18.10;70.00
13673;DHT22;6909;52.202;9.876;2023-06-26T02:15:05;18.10;1.00
13673;DHT22;6909;52.202;9.876;2023-06-26T02:17:33;18.10;1.00
13673;DHT22;6909;52.202;9.876;2023-06-26T02:20:00;18.10;1.00
13673;DHT22;6909;52.202;9.876;2023-06-26T02:22:26;18.00;6.70
13673;DHT22;6909;52.202;9.876;2023-06-26T02:24:54;18.00;1.00
13673;DHT22;6909;52.202;9.876;2023-06-26T02:27:20;17.90;1.00
13673;DHT22;6909;52.202;9.876;2023-06-26T02:29:47;17.90;1.00
13673;DHT22;6909;52.202;9.876;2023-06-26T02:32:14;17.90;99.90
13673;DHT22;6909;52.202;9.876;2023-06-26T02:34:42;17.90;99.90
13673;DHT22;6909;52.202;9.876;2023-06-26T02:37:09;17.80;99.90
13673;DHT22;6909;52.202;9.876;2023-06-26T02:39:35;17.90;99.90
13673;DHT22;6909;52.202;9.876;2023-06-26T02:42:02;17.90;99.90
13673;DHT22;6909;52.202;9.876;2023-06-26T02:44:29;17.90;1.00
13673;DHT22;6909;52.202;9.876;2023-06-26T02:46:56;18.00;1.00
13673;DHT22;6909;52.202;9.876;2023-06-26T02:49:22;18.10;99.90
13673;DHT22;6909;52.202;9.876;2023-06-26T02:51:50;18.10;1.00
13673;DHT22;6909;52.202;9.876;2023-06-26T02:54:17;18.10;1.00
13673;DHT22;6909;52.202;9.876;2023-06-26T02:56:44;18.00;1.00
13673;DHT22;6909;52.202;9.876;2023-06-26T02:59:10;18.00;1.00
13673;DHT22;6909;52.202;9.876;2023-06-26T03:01:37;18.00;98.40
13673;DHT22;6909;52.202;9.876;2023-06-26T03:04:04;18.10;99.90
13673;DHT22;6909;52.202;9.876;2023-06-26T03:06:30;18.00;1.00
13673;DHT22;6909;52.202;9.876;2023-06-26T03:08:58;18.00;99.90
13673;DHT22;6909;52.202;9.876;2023-06-26T03:11:25;18.00;1.00
13673;DHT22;6909;52.202;9.876;2023-06-26T03:13:51;18.00;1.00
13673;DHT22;6909;52.202;9.876;2023-06-26T03:16:18;18.00;1.00
13673;DHT22;6909;52.202;9.876;2023-06-26T03:18:45;18.00;1.00
13673;DHT22;6909;52.202;9.876;2023-06-26T03:21:11;18.10;1.00
13673;DHT22;6909;52.202;9.876;2023-06-26T03:23:38;18.10;1.00
13673;DHT22;6909;52.202;9.876;2023-06-26T03:26:06;18.10;99.90
13673;DHT22;6909;52.202;9.876;2023-06-26T03:28:33;18.10;1.00
13673;DHT22;6909;52.202;9.876;2023-06-26T03:30:59;18.00;31.20
13673;DHT22;6909;52.202;9.876;2023-06-26T03:33:26;18.30;1.00
13673;DHT22;6909;52.202;9.876;2023-06-26T03:35:53;18.50;1.00
13673;DHT22;6909;52.202;9.876;2023-06-26T03:38:19;18.70;5.60
13673;DHT22;6909;52.202;9.876;2023-06-26T03:40:46;18.90;77.60
13673;DHT22;6909;52.202;9.876;2023-06-26T03:43:14;19.00;1.00
13673;DHT22;6909;52.202;9.876;2023-06-26T03:45:41;18.90;99.90
13673;DHT22;6909;52.202;9.876;2023-06-26T03:48:07;18.90;1.00
13673;DHT22;6909;52.202;9.876;2023-06-26T03:50:34;19.00;99.90
13673;DHT22;6909;52.202;9.876;2023-06-26T03:53:00;19.10;1.00
13673;DHT22;6909;52.202;9.876;2023-06-26T03:55:27;19.20;94.60
13673;DHT22;6909;52.202;9.876;2023-06-26T03:57:54;19.30;1.00
13673;DHT22;6909;52.202;9.876;2023-06-26T04:00:22;19.40;1.00
13673;DHT22;6909;52.202;9.876;2023-06-26T04:02:48;19.50;1.00
13673;DHT22;6909;52.202;9.876;2023-06-26T04:05:16;19.60;99.90
13673;DHT22;6909;52.202;9.876;2023-06-26T04:07:43;19.60;1.00
13673;DHT22;6909;52.202;9.876;2023-06-26T04:10:10;19.70;1.00
13673;DHT22;6909;52.202;9.876;2023-06-26T04:12:36;19.60;99.90
13673;DHT22;6909;52.202;9.876;2023-06-26T04:15:04;19.50;99.90
13673;DHT22;6909;52.202;9.876;2023-06-26T04:17:32;19.50;99.90
13673;DHT22;6909;52.202;9.876;2023-06-26T04:19:59;19.50;99.90
13673;DHT22;6909;52.202;9.876;2023-06-26T04:22:25;19.60;99.90
13673;DHT22;6909;52.202;9.876;2023-06-26T04:24:52;19.70;99.90
13673;DHT22;6909;52.202;9.876;2023-06-26T04:27:19;20.40;1.00
13673;DHT22;6909;52.202;9.876;2023-06-26T04:29:45;22.00;99.90
13673;DHT22;6909;52.202;9.876;2023-06-26T04:32:12;23.40;1.00
13673;DHT22;6909;52.202;9.876;2023-06-26T04:34:40;24.10;99.90
13673;DHT22;6909;52.202;9.876;2023-06-26T04:37:09;24.90;1.00
13673;DHT22;6909;52.202;9.876;2023-06-26T04:39:36;25.90;99.90
13673;DHT22;6909;52.202;9.876;2023-06-26T04:42:04;26.40;99.90
13673;DHT22;6909;52.202;9.876;2023-06-26T04:44:31;27.80;99.90
13673;DHT22;6909;52.202;9.876;2023-06-26T04:46:57;28.40;1.00
13673;DHT22;6909;52.202;9.876;2023-06-26T04:49:24;28.70;1.00
13673;DHT22;6909;52.202;9.876;2023-06-26T04:51:52;29.10;1.00
13673;DHT22;6909;52.202;9.876;2023-06-26T04:54:19;29.50;1.00
13673;DHT22;6909;52.202;9.876;2023-06-26T04:56:46;29.10;1.00
13673;DHT22;6909;52.202;9.876;2023-06-26T04:59:13;28.00;1.00
13673;DHT22;6909;52.202;9.876;2023-06-26T05:01:40;27.40;1.00
13673;DHT22;6909;52.202;9.876;2023-06-26T05:04:07;27.30;1.00
13673;DHT22;6909;52.202;9.876;2023-06-26T05:06:33;27.70;1.00
13673;DHT22;6909;52.202;9.876;2023-06-26T05:09:01;28.20;1.00
13673;DHT22;6909;52.202;9.876;2023-06-26T05:11:28;28.50;1.00
13673;DHT22;6909;52.202;9.876;2023-06-26T05:13:55;29.60;1.00
13673;DHT22;6909;52.202;9.876;2023-06-26T05:16:21;30.30;1.00
13673;DHT22;6909;52.202;9.876;2023-06-26T05:18:48;31.20;1.00
13673;DHT22;6909;52.202;9.876;2023-06-26T05:21:15;31.80;1.00
13673;DHT22;6909;52.202;9.876;2023-06-26T05:23:42;31.30;1.00
13673;DHT22;6909;52.202;9.876;2023-06-26T05:26:11;30.50;1.00
13673;DHT22;6909;52.202;9.876;2023-06-26T05:28:39;29.90;1.00
13673;DHT22;6909;52.202;9.876;2023-06-26T05:31:06;29.30;1.00
13673;DHT22;6909;52.202;9.876;2023-06-26T05:33:35;29.20;1.00
13673;DHT22;6909;52.202;9.876;2023-06-26T05:36:04;28.80;1.00
13673;DHT22;6909;52.202;9.876;2023-06-26T05:38:31;28.60;1.00
13673;DHT22;6909;52.202;9.876;2023-06-26T05:40:59;28.30;1.00
13673;DHT22;6909;52.202;9.876;2023-06-26T05:43:27;28.30;1.00
13673;DHT22;6909;52.202;9.876;2023-06-26T05:45:53;28.40;1.00
13673;DHT22;6909;52.202;9.876;2023-06-26T05:48:20;28.60;1.00
13673;DHT22;6909;52.202;9.876;2023-06-26T05:50:47;28.80;1.00
13673;DHT22;6909;52.202;9.876;2023-06-26T05:53:14;28.50;1.00
13673;DHT22;6909;52.202;9.876;2023-06-26T05:55:42;28.80;1.00
13673;DHT22;6909;52.202;9.876;2023-06-26T05:58:10;29.80;1.00
13673;DHT22;6909;52.202;9.876;2023-06-26T06:00:39;30.50;1.00
13673;DHT22;6909;52.202;9.876;2023-06-26T06:03:06;30.90;1.00
13673;DHT22;6909;52.202;9.876;2023-06-26T06:05:33;31.60;1.00
13673;DHT22;6909;52.202;9.876;2023-06-26T06:07:59;32.20;1.00
13673;DHT22;6909;52.202;9.876;2023-06-26T06:10:26;32.40;1.00
13673;DHT22;6909;52.202;9.876;2023-06-26T06:12:52;32.90;1.00
13673;DHT22;6909;52.202;9.876;2023-06-26T06:15:20;33.50;1.00
13673;DHT22;6909;52.202;9.876;2023-06-26T06:17:48;33.60;1.00
13673;DHT22;6909;52.202;9.876;2023-06-26T06:20:14;33.30;1.00
13673;DHT22;6909;52.202;9.876;2023-06-26T06:22:41;34.50;1.00
13673;DHT22;6909;52.202;9.876;2023-06-26T06:25:08;34.80;1.00
13673;DHT22;6909;52.202;9.876;2023-06-26T06:27:35;34.90;1.00
13673;DHT22;6909;52.202;9.876;2023-06-26T06:30:02;35.10;1.00
13673;DHT22;6909;52.202;9.876;2023-06-26T06:32:29;36.00;1.00
13673;DHT22;6909;52.202;9.876;2023-06-26T06:34:57;35.10;1.00
13673;DHT22;6909;52.202;9.876;2023-06-26T06:37:23;35.20;1.00
13673;DHT22;6909;52.202;9.876;2023-06-26T06:39:50;36.10;1.00
13673;DHT22;6909;52.202;9.876;2023-06-26T06:42:17;35.60;1.00
13673;DHT22;6909;52.202;9.876;2023-06-26T06:44:43;35.90;1.00
13673;DHT22;6909;52.202;9.876;2023-06-26T06:47:10;35.20;1.00
13673;DHT22;6909;52.202;9.876;2023-06-26T06:49:37;34.80;1.00
13673;DHT22;6909;52.202;9.876;2023-06-26T06:52:05;34.80;1.00
13673;DHT22;6909;52.202;9.876;2023-06-26T06:54:51;34.80;1.00
13673;DHT22;6909;52.202;9.876;2023-06-26T06:57:18;34.80;1.00
13673;DHT22;6909;52.202;9.876;2023-06-26T06:59:45;34.70;1.00
13673;DHT22;6909;52.202;9.876;2023-06-26T07:02:12;35.20;1.00
13673;DHT22;6909;52.202;9.876;2023-06-26T07:04:39;34.70;1.00
13673;DHT22;6909;52.202;9.876;2023-06-26T07:07:07;34.70;1.00
13673;DHT22;6909;52.202;9.876;2023-06-26T07:09:34;34.60;1.00
13673;DHT22;6909;52.202;9.876;2023-06-26T07:12:00;34.60;1.00
13673;DHT22;6909;52.202;9.876;2023-06-26T07:14:28;34.80;1.00
13673;DHT22;6909;52.202;9.876;2023-06-26T07:16:54;34.80;1.00
13673;DHT22;6909;52.202;9.876;2023-06-26T07:19:21;35.20;1.00
13673;DHT22;6909;52.202;9.876;2023-06-26T07:21:48;35.40;1.00
13673;DHT22;6909;52.202;9.876;2023-06-26T07:24:16;34.90;1.00
13673;DHT22;6909;52.202;9.876;2023-06-26T07:26:42;35.50;1.00
13673;DHT22;6909;52.202;9.876;2023-06-26T07:29:09;35.80;1.00
13673;DHT22;6909;52.202;9.876;2023-06-26T07:31:36;35.40;1.00
13673;DHT22;6909;52.202;9.876;2023-06-26T07:34:02;35.60;1.00
13673;DHT22;6909;52.202;9.876;2023-06-26T07:36:29;36.30;1.00
13673;DHT22;6909;52.202;9.876;2023-06-26T07:38:56;35.90;1.00
13673;DHT22;6909;52.202;9.876;2023-06-26T07:41:24;36.20;1.00
13673;DHT22;6909;52.202;9.876;2023-06-26T07:43:50;35.90;1.00
13673;DHT22;6909;52.202;9.876;2023-06-26T07:46:17;36.70;1.00
13673;DHT22;6909;52.202;9.876;2023-06-26T07:48:44;36.10;1.00
13673;DHT22;6909;52.202;9.876;2023-06-26T07:51:10;36.00;1.00
13673;DHT22;6909;52.202;9.876;2023-06-26T07:53:37;36.10;1.00
13673;DHT22;6909;52.202;9.876;2023-06-26T07:56:04;35.30;1.00
13673;DHT22;6909;52.202;9.876;2023-06-26T07:58:32;35.90;1.00
13673;DHT22;6909;52.202;9.876;2023-06-26T08:00:59;36.00;1.00
13673;DHT22;6909;52.202;9.876;2023-06-26T08:03:25;36.00;1.00
13673;DHT22;6909;52.202;9.876;2023-06-26T08:05:52;36.40;1.00
13673;DHT22;6909;52.202;9.876;2023-06-26T08:08:19;36.00;1.00
13673;DHT22;6909;52.202;9.876;2023-06-26T08:10:45;36.00;1.00
13673;DHT22;6909;52.202;9.876;2023-06-26T08:13:12;35.70;1.00
13673;DHT22;6909;52.202;9.876;2023-06-26T08:15:40;35.60;1.00
13673;DHT22;6909;52.202;9.876;2023-06-26T08:18:07;35.60;1.00
13673;DHT22;6909;52.202;9.876;2023-06-26T08:20:33;35.60;1.00
13673;DHT22;6909;52.202;9.876;2023-06-26T08:23:01;34.60;1.00
13673;DHT22;6909;52.202;9.876;2023-06-26T08:25:27;34.40;1.00
13673;DHT22;6909;52.202;9.876;2023-06-26T08:27:54;34.70;1.00
13673;DHT22;6909;52.202;9.876;2023-06-26T08:30:21;34.10;1.00
13673;DHT22;6909;52.202;9.876;2023-06-26T08:32:54;34.80;1.00
13673;DHT22;6909;52.202;9.876;2023-06-26T08:35:21;35.10;1.00
13673;DHT22;6909;52.202;9.876;2023-06-26T08:37:48;34.90;1.00
13673;DHT22;6909;52.202;9.876;2023-06-26T08:40:17;33.70;1.00
13673;DHT22;6909;52.202;9.876;2023-06-26T08:42:43;34.20;1.00
13673;DHT22;6909;52.202;9.876;2023-06-26T08:45:11;33.80;1.00
13673;DHT22;6909;52.202;9.876;2023-06-26T08:47:37;33.50;1.00
13673;DHT22;6909;52.202;9.876;2023-06-26T08:50:08;33.60;1.00
13673;DHT22;6909;52.202;9.876;2023-06-26T08:52:37;33.90;1.00
13673;DHT22;6909;52.202;9.876;2023-06-26T08:55:09;33.80;1.00
13673;DHT22;6909;52.202;9.876;2023-06-26T08:57:37;32.90;1.00
13673;DHT22;6909;52.202;9.876;2023-06-26T09:00:05;32.50;1.00
13673;DHT22;6909;52.202;9.876;2023-06-26T09:02:34;32.30;1.00
13673;DHT22;6909;52.202;9.876;2023-06-26T09:05:01;32.10;1.00
13673;DHT22;6909;52.202;9.876;2023-06-26T09:07:30;31.60;1.00
13673;DHT22;6909;52.202;9.876;2023-06-26T09:09:56;30.90;1.00
13673;DHT22;6909;52.202;9.876;2023-06-26T09:12:23;30.20;1.00
13673;DHT22;6909;52.202;9.876;2023-06-26T09:14:53;29.20;1.00
13673;DHT22;6909;52.202;9.876;2023-06-26T09:17:24;28.60;1.00
13673;DHT22;6909;52.202;9.876;2023-06-26T09:19:51;28.10;1.00
13673;DHT22;6909;52.202;9.876;2023-06-26T09:22:17;27.90;1.00
13673;DHT22;6909;52.202;9.876;2023-06-26T09:24:45;27.60;1.00
13673;DHT22;6909;52.202;9.876;2023-06-26T09:27:15;27.80;1.00
13673;DHT22;6909;52.202;9.876;2023-06-26T09:29:45;27.60;1.00
13673;DHT22;6909;52.202;9.876;2023-06-26T09:32:13;27.80;1.00
13673;DHT22;6909;52.202;9.876;2023-06-26T09:34:42;27.90;1.00
13673;DHT22;6909;52.202;9.876;2023-06-26T09:37:11;28.00;1.00
13673;DHT22;6909;52.202;9.876;2023-06-26T09:39:38;28.20;1.00
13673;DHT22;6909;52.202;9.876;2023-06-26T09:42:06;28.30;1.00
13673;DHT22;6909;52.202;9.876;2023-06-26T09:44:33;28.30;1.00
13673;DHT22;6909;52.202;9.876;2023-06-26T09:47:01;28.30;1.00
13673;DHT22;6909;52.202;9.876;2023-06-26T09:49:28;28.00;1.00
13673;DHT22;6909;52.202;9.876;2023-06-26T09:51:55;27.90;1.00
13673;DHT22;6909;52.202;9.876;2023-06-26T09:54:22;27.60;1.00
13673;DHT22;6909;52.202;9.876;2023-06-26T09:56:50;27.50;1.00
13673;DHT22;6909;52.202;9.876;2023-06-26T09:59:18;27.30;1.00
13673;DHT22;6909;52.202;9.876;2023-06-26T10:01:45;27.00;1.00
13673;DHT22;6909;52.202;9.876;2023-06-26T10:04:12;26.70;1.00
13673;DHT22;6909;52.202;9.876;2023-06-26T10:06:44;26.60;1.00
13673;DHT22;6909;52.202;9.876;2023-06-26T10:09:12;26.50;1.00
13673;DHT22;6909;52.202;9.876;2023-06-26T10:11:43;26.10;1.00
13673;DHT22;6909;52.202;9.876;2023-06-26T10:14:12;26.00;1.00
13673;DHT22;6909;52.202;9.876;2023-06-26T10:16:43;25.80;1.00
13673;DHT22;6909;52.202;9.876;2023-06-26T10:19:11;25.70;1.00
13673;DHT22;6909;52.202;9.876;2023-06-26T10:21:40;25.60;1.00
13673;DHT22;6909;52.202;9.876;2023-06-26T10:24:06;25.60;1.00
13673;DHT22;6909;52.202;9.876;2023-06-26T10:26:38;25.60;1.00
13673;DHT22;6909;52.202;9.876;2023-06-26T10:29:07;25.60;1.00
13673;DHT22;6909;52.202;9.876;2023-06-26T10:31:35;25.50;60.50
13673;DHT22;6909;52.202;9.876;2023-06-26T10:34:03;25.80;36.20
13673;DHT22;6909;52.202;9.876;2023-06-26T10:36:31;25.90;99.90
13673;DHT22;6909;52.202;9.876;2023-06-26T10:39:01;26.00;99.90
13673;DHT22;6909;52.202;9.876;2023-06-26T10:41:36;26.00;99.90
13673;DHT22;6909;52.202;9.876;2023-06-26T10:44:08;25.70;99.90
13673;DHT22;6909;52.202;9.876;2023-06-26T10:46:48;25.70;99.90
13673;DHT22;6909;52.202;9.876;2023-06-26T10:49:17;25.80;99.90
13673;DHT22;6909;52.202;9.876;2023-06-26T10:51:46;25.30;99.90
13673;DHT22;6909;52.202;9.876;2023-06-26T10:54:15;24.20;1.00
13673;DHT22;6909;52.202;9.876;2023-06-26T10:56:42;23.60;1.00
13673;DHT22;6909;52.202;9.876;2023-06-26T10:59:17;23.30;1.00
13673;DHT22;6909;52.202;9.876;2023-06-26T11:01:45;23.30;99.90
13673;DHT22;6909;52.202;9.876;2023-06-26T11:04:14;23.20;1.00
13673;DHT22;6909;52.202;9.876;2023-06-26T11:06:45;23.10;99.90
13673;DHT22;6909;52.202;9.876;2023-06-26T11:09:17;23.20;99.90
13673;DHT22;6909;52.202;9.876;2023-06-26T11:11:58;23.70;99.90
13673;DHT22;6909;52.202;9.876;2023-06-26T11:14:27;23.80;1.00
13673;DHT22;6909;52.202;9.876;2023-06-26T11:16:55;24.10;99.90
13673;DHT22;6909;52.202;9.876;2023-06-26T11:19:23;24.30;99.90
13673;DHT22;6909;52.202;9.876;2023-06-26T11:21:55;24.50;1.00
13673;DHT22;6909;52.202;9.876;2023-06-26T11:24:24;24.50;1.00
13673;DHT22;6909;52.202;9.876;2023-06-26T11:26:51;24.20;1.00
13673;DHT22;6909;52.202;9.876;2023-06-26T11:29:18;24.00;1.00
13673;DHT22;6909;52.202;9.876;2023-06-26T11:31:45;24.20;99.90
13673;DHT22;6909;52.202;9.876;2023-06-26T11:34:13;24.50;99.90
13673;DHT22;6909;52.202;9.876;2023-06-26T11:36:42;24.90;1.00
13673;DHT22;6909;52.202;9.876;2023-06-26T11:39:13;24.80;1.00
13673;DHT22;6909;52.202;9.876;2023-06-26T11:41:40;24.60;1.00
13673;DHT22;6909;52.202;9.876;2023-06-26T11:44:08;24.20;99.90
13673;DHT22;6909;52.202;9.876;2023-06-26T11:46:36;23.90;99.90
13673;DHT22;6909;52.202;9.876;2023-06-26T11:49:03;23.70;99.90
13673;DHT22;6909;52.202;9.876;2023-06-26T11:51:30;23.50;99.90
13673;DHT22;6909;52.202;9.876;2023-06-26T11:54:00;23.50;1.00
13673;DHT22;6909;52.202;9.876;2023-06-26T11:56:28;23.30;1.00
13673;DHT22;6909;52.202;9.876;2023-06-26T11:58:56;23.50;1.00
13673;DHT22;6909;52.202;9.876;2023-06-26T12:01:24;23.80;1.00
13673;DHT22;6909;52.202;9.876;2023-06-26T12:03:53;24.20;99.90
13673;DHT22;6909;52.202;9.876;2023-06-26T12:06:20;24.30;99.90
13673;DHT22;6909;52.202;9.876;2023-06-26T12:08:47;24.70;95.20
13673;DHT22;6909;52.202;9.876;2023-06-26T12:11:14;25.00;1.00
13673;DHT22;6909;52.202;9.876;2023-06-26T12:13:42;25.40;1.00
13673;DHT22;6909;52.202;9.876;2023-06-26T12:16:09;25.20;1.00
13673;DHT22;6909;52.202;9.876;2023-06-26T12:18:36;25.10;1.00
13673;DHT22;6909;52.202;9.876;2023-06-26T12:21:03;24.30;1.00
13673;DHT22;6909;52.202;9.876;2023-06-26T12:23:33;24.10;1.00
13673;DHT22;6909;52.202;9.876;2023-06-26T12:26:17;23.70;1.00
13673;DHT22;6909;52.202;9.876;2023-06-26T12:28:45;23.60;1.00
13673;DHT22;6909;52.202;9.876;2023-06-26T12:31:13;23.70;99.90
13673;DHT22;6909;52.202;9.876;2023-06-26T12:33:40;23.90;99.90
13673;DHT22;6909;52.202;9.876;2023-06-26T12:36:11;24.50;99.90
13673;DHT22;6909;52.202;9.876;2023-06-26T12:38:38;24.80;99.90
13673;DHT22;6909;52.202;9.876;2023-06-26T12:41:04;24.80;83.30
13673;DHT22;6909;52.202;9.876;2023-06-26T12:43:31;24.70;92.10
13673;DHT22;6909;52.202;9.876;2023-06-26T12:45:59;24.70;1.40
13673;DHT22;6909;52.202;9.876;2023-06-26T12:48:37;24.70;99.90
13673;DHT22;6909;52.202;9.876;2023-06-26T12:51:08;24.50;92.70
13673;DHT22;6909;52.202;9.876;2023-06-26T12:53:35;24.40;99.90
13673;DHT22;6909;52.202;9.876;2023-06-26T12:56:02;24.30;99.90
13673;DHT22;6909;52.202;9.876;2023-06-26T12:58:29;24.00;99.90
13673;DHT22;6909;52.202;9.876;2023-06-26T13:00:55;23.90;99.90
13673;DHT22;6909;52.202;9.876;2023-06-26T13:03:24;23.90;99.90
13673;DHT22;6909;52.202;9.876;2023-06-26T13:05:50;23.90;99.90
13673;DHT22;6909;52.202;9.876;2023-06-26T13:08:17;24.00;99.90
13673;DHT22;6909;52.202;9.876;2023-06-26T13:10:44;24.20;99.90
13673;DHT22;6909;52.202;9.876;2023-06-26T13:13:11;24.30;99.90
13673;DHT22;6909;52.202;9.876;2023-06-26T13:15:38;24.60;99.90
13673;DHT22;6909;52.202;9.876;2023-06-26T13:18:04;24.70;99.90
13673;DHT22;6909;52.202;9.876;2023-06-26T13:20:32;25.00;99.90
13673;DHT22;6909;52.202;9.876;2023-06-26T13:22:59;25.10;1.00
13673;DHT22;6909;52.202;9.876;2023-06-26T13:25:26;25.20;18.60
13673;DHT22;6909;52.202;9.876;2023-06-26T13:27:52;25.40;1.00
13673;DHT22;6909;52.202;9.876;2023-06-26T13:30:19;25.10;1.00
13673;DHT22;6909;52.202;9.876;2023-06-26T13:32:46;24.90;1.00
13673;DHT22;6909;52.202;9.876;2023-06-26T13:35:12;24.80;1.00
13673;DHT22;6909;52.202;9.876;2023-06-26T13:37:41;24.50;1.00
13673;DHT22;6909;52.202;9.876;2023-06-26T13:40:09;24.30;1.00
13673;DHT22;6909;52.202;9.876;2023-06-26T13:42:36;24.30;1.00
13673;DHT22;6909;52.202;9.876;2023-06-26T13:45:04;24.40;1.00
13673;DHT22;6909;52.202;9.876;2023-06-26T13:47:31;24.40;1.00
13673;DHT22;6909;52.202;9.876;2023-06-26T13:49:59;24.30;1.00
13673;DHT22;6909;52.202;9.876;2023-06-26T13:52:26;24.20;1.00
13673;DHT22;6909;52.202;9.876;2023-06-26T13:54:54;24.40;1.00
13673;DHT22;6909;52.202;9.876;2023-06-26T13:57:21;24.60;1.00
13673;DHT22;6909;52.202;9.876;2023-06-26T13:59:48;24.60;1.00
13673;DHT22;6909;52.202;9.876;2023-06-26T14:02:14;24.80;1.00
13673;DHT22;6909;52.202;9.876;2023-06-26T14:04:41;24.50;1.00
13673;DHT22;6909;52.202;9.876;2023-06-26T14:07:09;24.40;1.00
13673;DHT22;6909;52.202;9.876;2023-06-26T14:09:35;24.40;1.00
13673;DHT22;6909;52.202;9.876;2023-06-26T14:12:04;24.40;1.00
13673;DHT22;6909;52.202;9.876;2023-06-26T14:14:32;25.00;1.00
13673;DHT22;6909;52.202;9.876;2023-06-26T14:16:58;25.30;1.00
13673;DHT22;6909;52.202;9.876;2023-06-26T14:19:25;25.50;1.00
13673;DHT22;6909;52.202;9.876;2023-06-26T14:21:52;25.70;1.00
13673;DHT22;6909;52.202;9.876;2023-06-26T14:24:19;25.60;1.00
13673;DHT22;6909;52.202;9.876;2023-06-26T14:26:45;25.60;1.00
13673;DHT22;6909;52.202;9.876;2023-06-26T14:29:13;25.60;1.00
13673;DHT22;6909;52.202;9.876;2023-06-26T14:31:42;25.80;1.00
13673;DHT22;6909;52.202;9.876;2023-06-26T14:34:09;25.50;1.00
13673;DHT22;6909;52.202;9.876;2023-06-26T14:36:35;25.50;1.00
13673;DHT22;6909;52.202;9.876;2023-06-26T14:39:03;25.50;1.00
13673;DHT22;6909;52.202;9.876;2023-06-26T14:41:29;25.10;1.00
13673;DHT22;6909;52.202;9.876;2023-06-26T14:43:56;24.80;1.00
13673;DHT22;6909;52.202;9.876;2023-06-26T14:46:24;24.80;1.00
13673;DHT22;6909;52.202;9.876;2023-06-26T14:48:51;24.90;1.00
13673;DHT22;6909;52.202;9.876;2023-06-26T14:51:17;24.70;1.00
13673;DHT22;6909;52.202;9.876;2023-06-26T14:53:45;24.50;1.00
13673;DHT22;6909;52.202;9.876;2023-06-26T14:56:13;24.30;1.00
13673;DHT22;6909;52.202;9.876;2023-06-26T14:58:39;24.00;1.00
13673;DHT22;6909;52.202;9.876;2023-06-26T15:01:06;24.00;1.00
13673;DHT22;6909;52.202;9.876;2023-06-26T15:03:34;23.80;1.00
13673;DHT22;6909;52.202;9.876;2023-06-26T15:06:00;23.90;1.00
13673;DHT22;6909;52.202;9.876;2023-06-26T15:08:27;24.00;1.00
13673;DHT22;6909;52.202;9.876;2023-06-26T15:10:54;24.20;1.00
13673;DHT22;6909;52.202;9.876;2023-06-26T15:13:20;24.30;1.00
13673;DHT22;6909;52.202;9.876;2023-06-26T15:15:47;24.50;1.00
13673;DHT22;6909;52.202;9.876;2023-06-26T15:18:14;24.70;1.00
13673;DHT22;6909;52.202;9.876;2023-06-26T15:20:42;24.70;1.00
13673;DHT22;6909;52.202;9.876;2023-06-26T15:23:08;24.80;1.00
13673;DHT22;6909;52.202;9.876;2023-06-26T15:25:35;24.50;1.00
13673;DHT22;6909;52.202;9.876;2023-06-26T15:28:02;24.20;1.00
13673;DHT22;6909;52.202;9.876;2023-06-26T15:30:29;23.90;1.00
13673;DHT22;6909;52.202;9.876;2023-06-26T15:32:55;23.70;1.00
13673;DHT22;6909;52.202;9.876;2023-06-26T15:35:22;23.50;1.00
13673;DHT22;6909;52.202;9.876;2023-06-26T15:37:50;23.40;1.00
13673;DHT22;6909;52.202;9.876;2023-06-26T15:40:17;23.50;1.00
13673;DHT22;6909;52.202;9.876;2023-06-26T15:42:48;23.30;1.00
13673;DHT22;6909;52.202;9.876;2023-06-26T15:45:15;23.10;1.00
13673;DHT22;6909;52.202;9.876;2023-06-26T15:47:43;23.00;1.00
13673;DHT22;6909;52.202;9.876;2023-06-26T15:50:10;23.10;1.00
13673;DHT22;6909;52.202;9.876;2023-06-26T15:52:37;23.10;1.00
13673;DHT22;6909;52.202;9.876;2023-06-26T15:55:06;23.20;1.00
13673;DHT22;6909;52.202;9.876;2023-06-26T15:57:35;23.30;1.00
13673;DHT22;6909;52.202;9.876;2023-06-26T16:00:02;23.40;1.00